sensor_id;sensor_type;location;lat;lon;timestamp;temperature;humidity
53314;DHT22;39202;51.468;7.146;2023-05-10T00:03:15;28.20;44.10
53314;DHT22;39202;51.468;7.146;2023-05-10T00:08:19;28.10;44.10
53314;DHT22;39202;51.468;7.146;2023-05-10T00:13:21;28.30;44.40
53314;DHT22;39202;51.468;7.146;2023-05-10T00:18:23;27.80;44.10
53314;DHT22;39202;51.468;7.146;2023-05-10T00:23:26;27.80;44.00
53314;DHT22;39202;51.468;7.146;2023-05-10T00:28:28;27.80;43.90
53314;DHT22;39202;51.468;7.146;2023-05-10T00:33:30;27.80;44.00
53314;DHT22;39202;51.468;7.146;2023-05-10T00:38:33;27.80;43.90
53314;DHT22;39202;51.468;7.146;2023-05-10T00:43:35;27.80;44.00
53314;DHT22;39202;51.468;7.146;2023-05-10T00:48:37;27.80;44.10
53314;DHT22;39202;51.468;7.146;2023-05-10T00:53:41;27.80;44.30
53314;DHT22;39202;51.468;7.146;2023-05-10T00:58:43;27.80;44.20
53314;DHT22;39202;51.468;7.146;2023-05-10T01:03:45;27.80;44.20
53314;DHT22;39202;51.468;7.146;2023-05-10T01:08:48;27.70;44.20
53314;DHT22;39202;51.468;7.146;2023-05-10T01:13:54;27.60;44.20
53314;DHT22;39202;51.468;7.146;2023-05-10T01:18:56;27.80;44.40
53314;DHT22;39202;51.468;7.146;2023-05-10T01:29:53;27.70;44.50
53314;DHT22;39202;51.468;7.146;2023-05-10T01:35:03;27.70;44.50
53314;DHT22;39202;51.468;7.146;2023-05-10T01:40:13;27.70;44.40
53314;DHT22;39202;51.468;7.146;2023-05-10T01:45:21;27.70;44.50
53314;DHT22;39202;51.468;7.146;2023-05-10T01:50:29;27.70;44.50
53314;DHT22;39202;51.468;7.146;2023-05-10T01:55:34;27.70;44.50
53314;DHT22;39202;51.468;7.146;2023-05-10T02:00:39;27.60;44.40
53314;DHT22;39202;51.468;7.146;2023-05-10T02:05:43;27.60;44.50
53314;DHT22;39202;51.468;7.146;2023-05-10T02:10:50;27.60;44.50
53314;DHT22;39202;51.468;7.146;2023-05-10T02:15:53;27.70;45.20
53314;DHT22;39202;51.468;7.146;2023-05-10T02:20:58;27.60;44.50
53314;DHT22;39202;51.468;7.146;2023-05-10T02:26:02;27.60;44.60
53314;DHT22;39202;51.468;7.146;2023-05-10T02:31:05;27.60;44.50
53314;DHT22;39202;51.468;7.146;2023-05-10T02:36:09;27.60;44.60
53314;DHT22;39202;51.468;7.146;2023-05-10T02:41:12;27.50;44.50
53314;DHT22;39202;51.468;7.146;2023-05-10T02:46:14;27.60;44.60
53314;DHT22;39202;51.468;7.146;2023-05-10T02:51:18;27.60;44.60
53314;DHT22;39202;51.468;7.146;2023-05-10T02:56:25;27.60;44.60
53314;DHT22;39202;51.468;7.146;2023-05-10T03:01:30;27.50;44.50
53314;DHT22;39202;51.468;7.146;2023-05-10T03:06:33;27.60;44.60
53314;DHT22;39202;51.468;7.146;2023-05-10T03:11:43;27.50;44.50
53314;DHT22;39202;51.468;7.146;2023-05-10T03:16:57;27.60;44.60
53314;DHT22;39202;51.468;7.146;2023-05-10T03:22:04;27.50;44.60
53314;DHT22;39202;51.468;7.146;2023-05-10T03:27:10;27.50;44.50
53314;DHT22;39202;51.468;7.146;2023-05-10T03:32:13;27.50;44.50
53314;DHT22;39202;51.468;7.146;2023-05-10T03:37:16;27.50;44.70
53314;DHT22;39202;51.468;7.146;2023-05-10T03:42:18;27.50;44.50
53314;DHT22;39202;51.468;7.146;2023-05-10T03:47:19;27.50;44.50
53314;DHT22;39202;51.468;7.146;2023-05-10T03:52:22;27.50;44.50
53314;DHT22;39202;51.468;7.146;2023-05-10T03:57:24;27.40;44.50
53314;DHT22;39202;51.468;7.146;2023-05-10T04:02:26;27.50;44.60
53314;DHT22;39202;51.468;7.146;2023-05-10T04:07:29;27.50;44.60
53314;DHT22;39202;51.468;7.146;2023-05-10T04:12:31;27.50;44.60
53314;DHT22;39202;51.468;7.146;2023-05-10T04:17:33;27.50;44.60
53314;DHT22;39202;51.468;7.146;2023-05-10T04:22:36;27.50;44.60
53314;DHT22;39202;51.468;7.146;2023-05-10T04:27:38;27.40;44.50
53314;DHT22;39202;51.468;7.146;2023-05-10T04:32:40;27.50;44.60
53314;DHT22;39202;51.468;7.146;2023-05-10T04:37:43;27.40;44.50
53314;DHT22;39202;51.468;7.146;2023-05-10T04:42:45;27.40;44.50
53314;DHT22;39202;51.468;7.146;2023-05-10T04:47:46;27.40;44.50
53314;DHT22;39202;51.468;7.146;2023-05-10T04:52:49;27.40;44.50
53314;DHT22;39202;51.468;7.146;2023-05-10T04:57:51;27.50;44.50
53314;DHT22;39202;51.468;7.146;2023-05-10T05:02:53;27.50;44.60
53314;DHT22;39202;51.468;7.146;2023-05-10T05:07:56;27.50;44.50
53314;DHT22;39202;51.468;7.146;2023-05-10T05:12:57;27.50;44.50
53314;DHT22;39202;51.468;7.146;2023-05-10T05:17:59;27.40;44.50
53314;DHT22;39202;51.468;7.146;2023-05-10T05:23:02;27.80;44.80
53314;DHT22;39202;51.468;7.146;2023-05-10T05:28:04;27.40;44.60
53314;DHT22;39202;51.468;7.146;2023-05-10T05:33:06;27.40;44.60
53314;DHT22;39202;51.468;7.146;2023-05-10T05:38:09;27.40;44.60
53314;DHT22;39202;51.468;7.146;2023-05-10T05:43:10;27.40;44.60
53314;DHT22;39202;51.468;7.146;2023-05-10T05:48:12;27.40;44.60
53314;DHT22;39202;51.468;7.146;2023-05-10T05:53:15;27.40;44.60
53314;DHT22;39202;51.468;7.146;2023-05-10T05:58:17;27.40;44.70
53314;DHT22;39202;51.468;7.146;2023-05-10T06:03:19;27.40;44.60
53314;DHT22;39202;51.468;7.146;2023-05-10T06:08:22;27.40;44.70
53314;DHT22;39202;51.468;7.146;2023-05-10T06:13:24;27.40;44.70
53314;DHT22;39202;51.468;7.146;2023-05-10T06:18:29;27.40;44.70
53314;DHT22;39202;51.468;7.146;2023-05-10T06:23:32;27.40;44.70
53314;DHT22;39202;51.468;7.146;2023-05-10T06:28:33;27.30;44.80
53314;DHT22;39202;51.468;7.146;2023-05-10T06:33:35;27.30;44.90
53314;DHT22;39202;51.468;7.146;2023-05-10T06:38:38;27.30;44.90
53314;DHT22;39202;51.468;7.146;2023-05-10T06:43:40;27.40;45.00
53314;DHT22;39202;51.468;7.146;2023-05-10T06:48:43;27.30;45.00
53314;DHT22;39202;51.468;7.146;2023-05-10T06:53:46;27.40;45.00
53314;DHT22;39202;51.468;7.146;2023-05-10T06:58:48;27.40;45.00
53314;DHT22;39202;51.468;7.146;2023-05-10T07:03:50;27.40;45.00
53314;DHT22;39202;51.468;7.146;2023-05-10T07:08:53;27.40;45.00
53314;DHT22;39202;51.468;7.146;2023-05-10T07:13:56;27.40;45.00
53314;DHT22;39202;51.468;7.146;2023-05-10T07:18:57;27.40;45.00
53314;DHT22;39202;51.468;7.146;2023-05-10T07:24:00;27.40;45.00
53314;DHT22;39202;51.468;7.146;2023-05-10T07:29:02;27.40;45.10
53314;DHT22;39202;51.468;7.146;2023-05-10T07:34:04;27.40;45.20
53314;DHT22;39202;51.468;7.146;2023-05-10T07:39:07;27.40;45.20
53314;DHT22;39202;51.468;7.146;2023-05-10T07:44:08;27.40;45.30
53314;DHT22;39202;51.468;7.146;2023-05-10T07:49:10;27.50;45.30
53314;DHT22;39202;51.468;7.146;2023-05-10T07:54:14;27.50;45.30
53314;DHT22;39202;51.468;7.146;2023-05-10T07:59:16;27.50;46.00
53314;DHT22;39202;51.468;7.146;2023-05-10T08:04:18;27.50;45.30
53314;DHT22;39202;51.468;7.146;2023-05-10T08:09:21;27.60;45.40
53314;DHT22;39202;51.468;7.146;2023-05-10T08:14:24;27.60;45.40
53314;DHT22;39202;51.468;7.146;2023-05-10T08:19:26;27.70;45.40
53314;DHT22;39202;51.468;7.146;2023-05-10T08:24:29;27.70;45.40
53314;DHT22;39202;51.468;7.146;2023-05-10T08:29:30;27.70;45.40
53314;DHT22;39202;51.468;7.146;2023-05-10T08:34:32;27.80;45.50
53314;DHT22;39202;51.468;7.146;2023-05-10T08:39:35;27.80;45.50
53314;DHT22;39202;51.468;7.146;2023-05-10T08:49:41;27.80;45.50
53314;DHT22;39202;51.468;7.146;2023-05-10T08:54:47;27.90;45.60
53314;DHT22;39202;51.468;7.146;2023-05-10T08:59:48;27.90;45.50
53314;DHT22;39202;51.468;7.146;2023-05-10T09:04:50;27.90;45.40
53314;DHT22;39202;51.468;7.146;2023-05-10T09:09:54;27.90;45.30
53314;DHT22;39202;51.468;7.146;2023-05-10T09:14:56;27.90;45.40
53314;DHT22;39202;51.468;7.146;2023-05-10T09:19:59;27.90;45.40
53314;DHT22;39202;51.468;7.146;2023-05-10T09:25:07;27.90;45.40
53314;DHT22;39202;51.468;7.146;2023-05-10T09:30:10;27.90;45.30
53314;DHT22;39202;51.468;7.146;2023-05-10T09:35:13;28.00;45.40
53314;DHT22;39202;51.468;7.146;2023-05-10T09:40:18;28.00;45.40
53314;DHT22;39202;51.468;7.146;2023-05-10T09:45:20;28.00;45.40
53314;DHT22;39202;51.468;7.146;2023-05-10T09:50:23;28.00;45.40
53314;DHT22;39202;51.468;7.146;2023-05-10T09:55:37;28.00;45.40
53314;DHT22;39202;51.468;7.146;2023-05-10T10:00:40;28.10;45.50
53314;DHT22;39202;51.468;7.146;2023-05-10T10:05:44;28.10;45.50
53314;DHT22;39202;51.468;7.146;2023-05-10T10:10:47;28.10;45.40
53314;DHT22;39202;51.468;7.146;2023-05-10T10:15:49;28.20;45.50
53314;DHT22;39202;51.468;7.146;2023-05-10T10:20:53;28.20;45.40
53314;DHT22;39202;51.468;7.146;2023-05-10T10:25:57;28.20;45.20
53314;DHT22;39202;51.468;7.146;2023-05-10T10:31:02;28.30;45.30
53314;DHT22;39202;51.468;7.146;2023-05-10T10:36:12;28.30;45.20
53314;DHT22;39202;51.468;7.146;2023-05-10T10:41:29;28.30;45.10
53314;DHT22;39202;51.468;7.146;2023-05-10T10:46:33;28.30;45.10
53314;DHT22;39202;51.468;7.146;2023-05-10T10:51:37;28.30;45.10
53314;DHT22;39202;51.468;7.146;2023-05-10T10:56:40;28.30;45.00
53314;DHT22;39202;51.468;7.146;2023-05-10T11:01:42;28.30;45.00
53314;DHT22;39202;51.468;7.146;2023-05-10T11:06:44;28.30;45.00
53314;DHT22;39202;51.468;7.146;2023-05-10T11:11:52;28.30;45.00
53314;DHT22;39202;51.468;7.146;2023-05-10T11:16:55;28.30;45.00
53314;DHT22;39202;51.468;7.146;2023-05-10T11:22:12;28.30;45.00
53314;DHT22;39202;51.468;7.146;2023-05-10T11:27:15;28.30;45.00
53314;DHT22;39202;51.468;7.146;2023-05-10T11:32:17;28.30;44.90
53314;DHT22;39202;51.468;7.146;2023-05-10T11:37:20;28.30;45.00
53314;DHT22;39202;51.468;7.146;2023-05-10T11:42:23;28.30;44.90
53314;DHT22;39202;51.468;7.146;2023-05-10T11:47:25;28.20;44.90
53314;DHT22;39202;51.468;7.146;2023-05-10T11:52:27;28.30;45.00
53314;DHT22;39202;51.468;7.146;2023-05-10T11:57:30;28.30;44.90
53314;DHT22;39202;51.468;7.146;2023-05-10T12:02:32;28.30;44.90
53314;DHT22;39202;51.468;7.146;2023-05-10T12:07:34;28.20;44.80
53314;DHT22;39202;51.468;7.146;2023-05-10T12:12:42;28.20;44.80
53314;DHT22;39202;51.468;7.146;2023-05-10T12:17:44;28.20;44.80
53314;DHT22;39202;51.468;7.146;2023-05-10T12:22:50;28.30;44.90
53314;DHT22;39202;51.468;7.146;2023-05-10T12:27:54;28.30;45.00
53314;DHT22;39202;51.468;7.146;2023-05-10T12:33:00;28.30;45.00
53314;DHT22;39202;51.468;7.146;2023-05-10T12:38:25;28.30;45.10
53314;DHT22;39202;51.468;7.146;2023-05-10T12:43:28;28.40;45.10
53314;DHT22;39202;51.468;7.146;2023-05-10T12:48:30;28.40;45.10
53314;DHT22;39202;51.468;7.146;2023-05-10T12:53:34;28.40;45.00
53314;DHT22;39202;51.468;7.146;2023-05-10T12:58:38;28.50;45.10
53314;DHT22;39202;51.468;7.146;2023-05-10T13:03:40;28.50;45.10
53314;DHT22;39202;51.468;7.146;2023-05-10T13:08:43;28.50;45.10
53314;DHT22;39202;51.468;7.146;2023-05-10T13:13:46;28.50;45.10
53314;DHT22;39202;51.468;7.146;2023-05-10T13:18:48;28.60;45.10
53314;DHT22;39202;51.468;7.146;2023-05-10T13:23:50;28.60;45.10
53314;DHT22;39202;51.468;7.146;2023-05-10T13:28:53;28.70;45.10
53314;DHT22;39202;51.468;7.146;2023-05-10T13:33:56;28.60;45.00
53314;DHT22;39202;51.468;7.146;2023-05-10T13:38:57;28.60;45.10
53314;DHT22;39202;51.468;7.146;2023-05-10T13:44:03;28.70;45.20
53314;DHT22;39202;51.468;7.146;2023-05-10T13:49:05;28.70;45.20
53314;DHT22;39202;51.468;7.146;2023-05-10T13:54:06;28.70;45.20
53314;DHT22;39202;51.468;7.146;2023-05-10T13:59:09;28.80;45.30
53314;DHT22;39202;51.468;7.146;2023-05-10T14:04:11;28.80;45.30
53314;DHT22;39202;51.468;7.146;2023-05-10T14:09:13;28.80;45.30
53314;DHT22;39202;51.468;7.146;2023-05-10T14:14:16;28.90;45.40
53314;DHT22;39202;51.468;7.146;2023-05-10T14:19:18;28.90;45.40
53314;DHT22;39202;51.468;7.146;2023-05-10T14:24:19;28.90;45.40
53314;DHT22;39202;51.468;7.146;2023-05-10T14:29:23;29.00;45.40
53314;DHT22;39202;51.468;7.146;2023-05-10T14:34:25;29.00;45.50
53314;DHT22;39202;51.468;7.146;2023-05-10T14:39:27;29.00;45.40
53314;DHT22;39202;51.468;7.146;2023-05-10T14:44:31;29.10;45.50
53314;DHT22;39202;51.468;7.146;2023-05-10T14:49:33;29.10;45.50
53314;DHT22;39202;51.468;7.146;2023-05-10T14:54:35;29.10;45.50
53314;DHT22;39202;51.468;7.146;2023-05-10T14:59:38;29.20;45.60
53314;DHT22;39202;51.468;7.146;2023-05-10T15:04:39;29.10;45.50
53314;DHT22;39202;51.468;7.146;2023-05-10T15:09:41;29.20;45.60
53314;DHT22;39202;51.468;7.146;2023-05-10T15:14:44;29.20;45.60
53314;DHT22;39202;51.468;7.146;2023-05-10T15:19:46;29.20;45.60
53314;DHT22;39202;51.468;7.146;2023-05-10T15:24:49;29.20;45.60
53314;DHT22;39202;51.468;7.146;2023-05-10T15:29:52;29.20;45.60
53314;DHT22;39202;51.468;7.146;2023-05-10T15:34:54;29.20;45.70
53314;DHT22;39202;51.468;7.146;2023-05-10T15:39:56;29.30;44.80
53314;DHT22;39202;51.468;7.146;2023-05-10T15:45:06;29.30;43.80
53314;DHT22;39202;51.468;7.146;2023-05-10T15:50:08;29.20;43.20
53314;DHT22;39202;51.468;7.146;2023-05-10T15:55:10;29.10;42.90
53314;DHT22;39202;51.468;7.146;2023-05-10T16:00:15;29.00;42.70
53314;DHT22;39202;51.468;7.146;2023-05-10T16:05:18;28.80;42.40
53314;DHT22;39202;51.468;7.146;2023-05-10T16:10:21;28.70;42.50
53314;DHT22;39202;51.468;7.146;2023-05-10T16:15:24;28.60;42.50
53314;DHT22;39202;51.468;7.146;2023-05-10T16:20:26;28.50;42.50
53314;DHT22;39202;51.468;7.146;2023-05-10T16:25:29;28.40;42.50
53314;DHT22;39202;51.468;7.146;2023-05-10T16:30:32;28.30;42.60
53314;DHT22;39202;51.468;7.146;2023-05-10T16:35:34;28.30;42.80
53314;DHT22;39202;51.468;7.146;2023-05-10T16:40:35;28.30;43.00
53314;DHT22;39202;51.468;7.146;2023-05-10T16:45:39;28.20;43.00
53314;DHT22;39202;51.468;7.146;2023-05-10T16:50:42;28.20;43.00
53314;DHT22;39202;51.468;7.146;2023-05-10T16:55:44;28.20;43.10
53314;DHT22;39202;51.468;7.146;2023-05-10T17:00:47;28.20;43.20
53314;DHT22;39202;51.468;7.146;2023-05-10T17:05:49;28.20;43.20
53314;DHT22;39202;51.468;7.146;2023-05-10T17:10:50;28.20;43.20
53314;DHT22;39202;51.468;7.146;2023-05-10T17:15:53;28.20;43.20
53314;DHT22;39202;51.468;7.146;2023-05-10T17:20:55;28.20;43.20
53314;DHT22;39202;51.468;7.146;2023-05-10T17:25:57;28.20;43.20
53314;DHT22;39202;51.468;7.146;2023-05-10T17:31:00;28.10;43.20
53314;DHT22;39202;51.468;7.146;2023-05-10T17:36:02;28.20;43.30
53314;DHT22;39202;51.468;7.146;2023-05-10T17:41:04;28.10;43.20
53314;DHT22;39202;51.468;7.146;2023-05-10T17:46:08;28.10;43.20
53314;DHT22;39202;51.468;7.146;2023-05-10T17:51:10;28.10;43.20
53314;DHT22;39202;51.468;7.146;2023-05-10T17:56:12;28.10;43.30
53314;DHT22;39202;51.468;7.146;2023-05-10T18:01:15;28.10;43.30
53314;DHT22;39202;51.468;7.146;2023-05-10T18:06:17;28.00;43.30
53314;DHT22;39202;51.468;7.146;2023-05-10T18:11:19;28.10;43.30
53314;DHT22;39202;51.468;7.146;2023-05-10T18:16:22;28.10;43.40
53314;DHT22;39202;51.468;7.146;2023-05-10T18:21:24;28.10;43.40
53314;DHT22;39202;51.468;7.146;2023-05-10T18:26:26;28.00;43.30
53314;DHT22;39202;51.468;7.146;2023-05-10T18:31:29;28.00;43.30
53314;DHT22;39202;51.468;7.146;2023-05-10T18:36:31;28.00;43.30
53314;DHT22;39202;51.468;7.146;2023-05-10T18:41:33;28.00;43.40
53314;DHT22;39202;51.468;7.146;2023-05-10T18:46:36;28.00;43.40
53314;DHT22;39202;51.468;7.146;2023-05-10T18:51:38;28.00;43.30
53314;DHT22;39202;51.468;7.146;2023-05-10T18:56:40;28.00;43.40
53314;DHT22;39202;51.468;7.146;2023-05-10T19:01:46;28.00;43.40
53314;DHT22;39202;51.468;7.146;2023-05-10T19:06:48;28.00;43.50
53314;DHT22;39202;51.468;7.146;2023-05-10T19:11:50;28.00;43.40
53314;DHT22;39202;51.468;7.146;2023-05-10T19:16:53;28.00;43.40
53314;DHT22;39202;51.468;7.146;2023-05-10T19:21:55;28.00;43.40
53314;DHT22;39202;51.468;7.146;2023-05-10T19:26:57;28.00;43.50
53314;DHT22;39202;51.468;7.146;2023-05-10T19:32:00;27.90;43.40
53314;DHT22;39202;51.468;7.146;2023-05-10T19:37:02;27.90;43.40
53314;DHT22;39202;51.468;7.146;2023-05-10T19:42:03;27.90;43.40
53314;DHT22;39202;51.468;7.146;2023-05-10T19:47:07;27.90;43.50
53314;DHT22;39202;51.468;7.146;2023-05-10T19:52:09;27.90;43.50
53314;DHT22;39202;51.468;7.146;2023-05-10T19:57:11;27.80;43.40
53314;DHT22;39202;51.468;7.146;2023-05-10T20:02:14;27.80;43.50
53314;DHT22;39202;51.468;7.146;2023-05-10T20:07:16;27.80;43.50
53314;DHT22;39202;51.468;7.146;2023-05-10T20:12:18;27.80;43.50
53314;DHT22;39202;51.468;7.146;2023-05-10T20:17:21;27.80;43.50
53314;DHT22;39202;51.468;7.146;2023-05-10T20:22:24;27.80;43.50
53314;DHT22;39202;51.468;7.146;2023-05-10T20:27:26;27.80;43.50
53314;DHT22;39202;51.468;7.146;2023-05-10T20:32:29;27.80;43.60
53314;DHT22;39202;51.468;7.146;2023-05-10T20:37:31;27.80;43.50
53314;DHT22;39202;51.468;7.146;2023-05-10T20:42:33;27.80;43.60
53314;DHT22;39202;51.468;7.146;2023-05-10T20:52:38;27.70;43.50
53314;DHT22;39202;51.468;7.146;2023-05-10T20:57:40;27.70;43.60
53314;DHT22;39202;51.468;7.146;2023-05-10T21:02:44;27.70;43.60
53314;DHT22;39202;51.468;7.146;2023-05-10T21:07:47;27.70;43.60
53314;DHT22;39202;51.468;7.146;2023-05-10T21:12:49;27.70;43.60
53314;DHT22;39202;51.468;7.146;2023-05-10T21:17:52;27.70;43.60
53314;DHT22;39202;51.468;7.146;2023-05-10T21:22:55;27.70;43.70
53314;DHT22;39202;51.468;7.146;2023-05-10T21:27:57;27.60;43.60
53314;DHT22;39202;51.468;7.146;2023-05-10T21:32:59;27.50;43.50
53314;DHT22;39202;51.468;7.146;2023-05-10T21:38:04;27.60;43.60
53314;DHT22;39202;51.468;7.146;2023-05-10T21:43:06;27.60;43.70
53314;DHT22;39202;51.468;7.146;2023-05-10T21:48:07;27.60;43.70
53314;DHT22;39202;51.468;7.146;2023-05-10T21:53:10;27.60;43.70
53314;DHT22;39202;51.468;7.146;2023-05-10T21:58:12;27.60;43.70
53314;DHT22;39202;51.468;7.146;2023-05-10T22:03:14;27.60;43.70
53314;DHT22;39202;51.468;7.146;2023-05-10T22:08:17;27.50;43.60
53314;DHT22;39202;51.468;7.146;2023-05-10T22:13:19;27.50;43.70
53314;DHT22;39202;51.468;7.146;2023-05-10T22:18:20;27.50;43.70
53314;DHT22;39202;51.468;7.146;2023-05-10T22:23:24;27.50;43.70
53314;DHT22;39202;51.468;7.146;2023-05-10T22:28:25;27.50;43.70
53314;DHT22;39202;51.468;7.146;2023-05-10T22:33:27;27.40;43.70
53314;DHT22;39202;51.468;7.146;2023-05-10T22:38:30;27.50;43.70
53314;DHT22;39202;51.468;7.146;2023-05-10T22:43:32;27.50;43.80
53314;DHT22;39202;51.468;7.146;2023-05-10T22:48:34;27.50;43.80
53314;DHT22;39202;51.468;7.146;2023-05-10T22:53:37;27.40;43.70
53314;DHT22;39202;51.468;7.146;2023-05-10T22:58:39;27.40;43.80
53314;DHT22;39202;51.468;7.146;2023-05-10T23:03:41;27.40;43.80
53314;DHT22;39202;51.468;7.146;2023-05-10T23:08:44;27.40;43.80
53314;DHT22;39202;51.468;7.146;2023-05-10T23:13:46;27.40;43.80
53314;DHT22;39202;51.468;7.146;2023-05-10T23:18:48;27.40;43.80
53314;DHT22;39202;51.468;7.146;2023-05-10T23:23:51;27.40;43.80
53314;DHT22;39202;51.468;7.146;2023-05-10T23:28:52;27.40;43.80
53314;DHT22;39202;51.468;7.146;2023-05-10T23:33:54;27.40;43.80
53314;DHT22;39202;51.468;7.146;2023-05-10T23:38:57;27.40;43.90
53314;DHT22;39202;51.468;7.146;2023-05-10T23:43:59;27.40;44.00
53314;DHT22;39202;51.468;7.146;2023-05-10T23:49:01;27.40;44.00
53314;DHT22;39202;51.468;7.146;2023-05-10T23:54:04;27.30;43.90
53314;DHT22;39202;51.468;7.146;2023-05-10T23:59:06;27.30;43.90
